Atlanta, MI

10:16 PM EST on November 26, 2014 (GMT -0500)
Moon Lake | Change Station
CLOSE
Current Station
Personal Weather Station
Location: Lewiston, MI
Elevation: 1240 ft
Nearby Weather Stations

Elev 1240 ft 44.84 °N, 84.26 °W | Updated 6 minutes ago

Overcast
Overcast
23.4 °F
Feels Like 23 °F
N
0.0
Wind Variable Wind from SE
Gusts 0.0 mph

Today
High -- | Low -- °F
--% Chance of Precip.
Yesterday
High -- | Low -- °F
Precip. -- in
7:48 AM 4:58 PM
Waxing Crescent, 25% visible
Pressure 30.14 in
Visibility 10.0 miles
Clouds Overcast 2700 ft
Windchill 23 °F
Dew Point 21 °F
Humidity 90%
Rainfall 0.00 in
Snow Depth Not available.
UV 0 out of 12
Pollen .10 out of 12
Air Quality Not available.
Flu Activity Not available.
METAR KGLR 270253Z AUTO 27004KT 10SM OVC027 M05/M07 A3008 RMK AO2 SLP206 T10501067 56006

More Conditions Fewer Conditions

Pressure 30.14 in
Visibility 10.0 miles
Clouds Overcast 2700 ft
Windchill 23 °F
Dew Point 21 °F
Humidity 90%
Rainfall 0.00 in
Snow Depth Not available.
UV 0 out of 12
Pollen .10 out of 12
Air Quality Not available.
Flu Activity Not available.
METAR KGLR 270253Z AUTO 27004KT 10SM OVC027 M05/M07 A3008 RMK AO2 SLP206 T10501067 56006

More Conditions Fewer Conditions

Nowcast | as of 10:00 PM EST on November 26, 2014

At 11 PM...cloudy. Occasional flurries. Temperature 24. Light winds. At 1 am...cloudy. Scattered snow showers. Temperature 24. Light winds. At 3 am...cloudy. Scattered snow showers. Temperature 24. Light winds. At 5 am...cloudy. Scattered snow showers. Temperature 24. Light winds.

×

10-Day Weather Forecast

Almanac

Astronomy

Nov. 26, 2014 Rise Set
Actual Time
Civil Twilight
Nautical Twilight
Astronomical Twilight
Moon
Length of Visible Light
Length of Day
Tomorrow will be .
, % of the Moon is Illuminated

Today's Extremes

State Highs State Lows

Community

WunderPhotos

Upload Photos

1,773,949 photos uploaded!

WunderBlogs® & News

Nearby

Air Quality

  Air Quality AQ Index Pollutant
Not available.

Snow Depth

Station Depth Elevation

Earthquake Activity

City Distance Mag. Time & Date
Minimum magnitude displayed is 2.5.

Coastal Water Temperatures

Place Temperature

Nearby Weather Stations